ADDS METAR Data INFO
IDs: Format: Raw Decoded Include TAF

Data at: 1142 UTC 23 Jun 2018

PAUT 231135Z AUTO 16009KT 10SM OVC012 07/06 A3005 RMK AO2 T00700061
PAUT 231115Z AUTO 16009KT 10SM BKN008 OVC014 07/06 A3004 RMK AO2 T00700061
PAUT 231055Z AUTO 16010KT 10SM SCT009 OVC017 07/06 A3004 RMK AO2 T00680062
PAUT 231035Z AUTO 16009KT 10SM SCT007 BKN017 OVC021 07/06 A3005 RMK AO2 T00680063
PAUT 231015Z AUTO 16009KT 10SM BKN016 OVC021 07/06 A3005 RMK AO2 T00670062
PAUT 230955Z AUTO 16010KT 10SM SCT006 OVC016 07/06 A3005 RMK AO2 T00670062
PAUT 230935Z AUTO 16011KT 10SM SCT006 SCT013 OVC018 07/06 A3005 RMK AO2 T00670062
PAUT 230915Z AUTO 16010KT 10SM SCT008 SCT013 OVC021 07/06 A3005 RMK AO2 T00650060
PAUT 230855Z AUTO 16010KT 10SM SCT007 OVC012 06/06 A3004 RMK AO2 T00630060 400870060
PAUT 230835Z AUTO 16011KT 5SM BR SCT006 SCT010 OVC015 07/06 A3004 RMK AO2 T00650059
PAUT 230815Z AUTO 16009KT 10SM OVC017 07/06 A3004 RMK AO2 T00670058
PAUT 230755Z AUTO 16009KT 10SM BKN016 OVC020 07/06 A3004 RMK AO2 T00650055
PAUT 230735Z AUTO 15010KT 10SM OVC017 07/06 A3004 RMK AO2 T00650058
PAUT 230715Z AUTO 16008KT 10SM SCT010 OVC015 07/06 A3003 RMK AO2 T00650060
PAUT 230655Z AUTO 18009KT 4SM BR BKN010 BKN015 OVC060 07/06 A3003 RMK AO2 T00650058
PAUT 230635Z AUTO 17010KT 10SM BKN026 OVC060 07/06 A3003 RMK AO2 T00690056
PAUT 230615Z AUTO 16006KT 10SM SCT015 BKN026 OVC060 07/06 A3003 RMK AO2 T00700057
PAUT 230555Z AUTO 17009KT 7SM SCT006 OVC015 07/06 A3003 RMK AO2 T00670062 10087 20066
PAUT 230535Z AUTO 17009KT 3SM BR SCT004 OVC015 07/06 A3003 RMK AO2 T00670062
PAUT 230515Z AUTO 16012KT 10SM BKN015 OVC027 07/06 A3003 RMK AO2 T00720060
PAUT 230455Z AUTO 16011KT 10SM OVC017 07/06 A3003 RMK AO2 T00730057
PAUT 230435Z AUTO 16011KT 10SM OVC019 08/06 A3003 RMK AO2 T00750056
PAUT 230415Z AUTO 17011KT 10SM BKN016 OVC022 08/06 A3003 RMK AO2 T00770055
PAUT 230355Z AUTO 17010KT 10SM SCT014 OVC022 08/05 A3003 RMK AO2 T00800054
PAUT 230335Z AUTO 17008KT 10SM SCT014 OVC024 08/06 A3003 RMK AO2 T00790055
PAUT 230315Z AUTO 18010KT 10SM BKN014 OVC024 08/05 A3003 RMK AO2 T00800052
PAUT 230255Z AUTO 18010KT 10SM SCT016 OVC024 08/05 A3002 RMK AO2 T00820051
PAUT 230235Z AUTO 19008KT 10SM BKN016 OVC022 08/05 A3003 RMK AO2 T00760052
PAUT 230215Z AUTO 20008KT 10SM BKN014 OVC022 08/05 A3003 RMK AO2 T00770053
PAUT 230155Z AUTO 20009G16KT 10SM BKN012 OVC022 08/05 A3003 RMK AO2 T00820052
PAUT 230135Z AUTO 18010KT 10SM OVC022 08/05 A3003 RMK AO2 T00800052
PAUT 230115Z AUTO 18011KT 10SM OVC024 08/05 A3003 RMK AO2 T00760046
PAUT 230055Z AUTO 18010KT 10SM SCT011 OVC028 08/05 A3003 RMK AO2 T00770048
PAUT 230035Z AUTO 17011KT 10SM OVC028 08/05 A3003 RMK AO2 T00840053
PAUT 230015Z AUTO 16012KT 10SM SCT011 OVC028 08/05 A3003 RMK AO2 T00810053
PAUT 222355Z AUTO 18013KT 10SM OVC028 08/05 A3003 RMK AO2 T00820050 10087 20065
PAUT 222335Z AUTO 16011KT 10SM BKN021 OVC026 08/05 A3003 RMK AO2 T00820046
PAUT 222315Z AUTO 17010KT 10SM SCT014 OVC021 07/05 A3003 RMK AO2 T00720045
PAUT 222255Z AUTO 19011G14KT 10SM BKN012 OVC029 08/05 A3003 RMK AO2 T00760047
PAUT 222235Z AUTO 20012G17KT 10SM BKN029 OVC033 08/04 A3003 RMK AO2 T00780042
PAUT 222215Z AUTO 21011G16KT 10SM OVC033 08/05 A3003 RMK AO2 T00800046
PAUT 222155Z AUTO 20009G18KT 10SM SCT018 OVC033 08/05 A3003 RMK AO2 T00800050
PAUT 222135Z AUTO 19011G15KT 10SM SCT006 SCT016 OVC033 07/05 A3003 RMK AO2 T00720051
PAUT 222115Z AUTO 20013G18KT 10SM SCT008 OVC033 08/05 A3002 RMK AO2 T00750053
PAUT 222055Z AUTO 18011G18KT 10SM SCT010 OVC031 08/06 A3002 RMK AO2 T00810057
PAUT 222035Z AUTO 21010KT 10SM BKN031 09/05 A3002 RMK AO2 T00860052
PAUT 222015Z AUTO 20009KT 10SM BKN029 08/05 A3002 RMK AO2 T00810047
PAUT 221955Z AUTO 19008KT 10SM SCT007 SCT022 BKN029 07/05 A3002 RMK AO2 T00720050
PAUT 221935Z AUTO 19010G16KT 10SM SCT020 OVC029 07/05 A3002 RMK AO2 T00700052
PAUT 221915Z AUTO 19009G16KT 10SM SCT011 BKN020 OVC029 07/05 A3001 RMK AO2 T00660053
PAUT 221855Z AUTO 19011KT 10SM SCT009 OVC027 07/05 A3001 RMK AO2 T00670050
PAUT 221835Z AUTO 19006KT 10SM OVC027 07/06 A3001 RMK AO2 T00680055
PAUT 221815Z AUTO 19007KT 10SM BKN023 OVC027 07/06 A3001 RMK AO2 T00670055
PAUT 221755Z AUTO 20007KT 10SM OVC024 07/05 A3001 RMK AO2 T00670051 10070 20060
PAUT 221735Z AUTO 19006KT 10SM OVC026 07/05 A3000 RMK AO2 T00680046
PAUT 221715Z AUTO 19007KT 10SM SCT010 OVC028 07/05 A3000 RMK AO2 T00680051
PAUT 221655Z AUTO 19004KT 10SM OVC028 07/05 A3000 RMK AO2 T00690052
PAUT 221635Z AUTO 12006KT 10SM OVC028 07/06 A3000 RMK AO2 T00670055
PAUT 221615Z AUTO 11005KT 10SM OVC028 07/05 A2999 RMK AO2 T00650050
PAUT 221555Z AUTO 10004KT 10SM SCT013 OVC028 06/05 A2999 RMK AO2 T00630050
PAUT 221535Z AUTO 11004KT 10SM SCT013 OVC028 06/05 A2999 RMK AO2 T00630050
PAUT 221515Z AUTO 11005KT 10SM SCT013 BKN020 OVC028 06/05 A2999 RMK AO2 T00610046
PAUT 221455Z AUTO 11005KT 10SM BKN013 BKN020 OVC028 06/05 A2999 RMK AO2 T00610045
PAUT 221435Z AUTO 11004KT 10SM SCT015 OVC028 06/05 A2999 RMK AO2 T00610047
PAUT 221415Z AUTO 11005KT 10SM OVC028 06/05 A2999 RMK AO2 T00620048
PAUT 221355Z AUTO 12006KT 10SM OVC030 06/05 A2998 RMK AO2 T00620050
PAUT 221335Z AUTO 13003KT 10SM OVC032 06/05 A2998 RMK AO2 T00600047
PAUT 221315Z AUTO 11004KT 10SM OVC032 06/05 A2998 RMK AO2 T00600045
PAUT 221255Z AUTO 11004KT 10SM SCT019 SCT023 OVC032 06/04 A2998 RMK AO2 T00600043
PAUT 221235Z AUTO 12004KT 10SM SCT019 OVC032 06/04 A2998 RMK AO2 T00610043
PAUT 221215Z AUTO 00000KT 10SM SCT021 OVC032 06/04 A2998 RMK AO2 T00600043
PAUT 221155Z AUTO 00000KT 10SM SCT020 SCT027 OVC032 06/04 A2998 RMK AO2 T00640041 10070 20064
PAUT 221135Z AUTO 00000KT 10SM BKN022 OVC027 07/04 A2998 RMK AO2 T00660041
PAUT 221115Z AUTO 00000KT 10SM OVC022 07/04 A2998 RMK AO2 T00680040
PAUT 221055Z AUTO 00000KT 10SM OVC022 07/04 A2998 RMK AO2 T00680037
PAUT 221035Z AUTO 33004KT 10SM OVC022 07/04 A2998 RMK AO2 T00670038
PAUT 221015Z AUTO 34003KT 10SM OVC022 07/04 A2998 RMK AO2 T00680041
PAUT 220955Z AUTO 33005KT 10SM OVC024 07/04 A2998 RMK AO2 T00680044
PAUT 220935Z AUTO 33004KT 10SM OVC024 07/04 A2997 RMK AO2 T00670044
PAUT 220915Z AUTO 33006KT 10SM BKN026 OVC036 07/05 A2997 RMK AO2 T00670045
PAUT 220855Z AUTO 33005KT 10SM SCT026 OVC036 07/05 A2997 RMK AO2 T00660045 400900063
PAUT 220835Z AUTO 33007KT 10SM OVC036 07/05 A2997 RMK AO2 T00650045
PAUT 220815Z AUTO 33007KT 10SM SCT025 OVC036 07/05 A2996 RMK AO2 T00650047
PAUT 220755Z AUTO 34007KT 10SM OVC036 07/05 A2996 RMK AO2 T00650050
PAUT 220735Z AUTO 33006KT 10SM SCT029 OVC034 07/05 A2996 RMK AO2 T00660050
PAUT 220715Z AUTO 32008KT 10SM OVC034 07/05 A2995 RMK AO2 T00670050
PAUT 220655Z AUTO 32008KT 10SM OVC034 07/05 A2995 RMK AO2 T00680050
PAUT 220635Z AUTO 33007KT 10SM SCT028 OVC034 07/05 A2995 RMK AO2 T00680050
PAUT 220615Z AUTO 33009KT 10SM BKN026 OVC036 07/05 A2994 RMK AO2 T00680050
PAUT 220555Z AUTO 34009KT 10SM OVC026 07/05 A2994 RMK AO2 T00690048 10081 20069
PAUT 220535Z AUTO 33009KT 10SM BKN028 OVC036 07/05 A2993 RMK AO2 T00690051
PAUT 220515Z AUTO 32010KT 10SM BKN026 OVC032 07/05 A2993 RMK AO2 T00700046
PAUT 220455Z AUTO 33008KT 10SM OVC026 07/05 A2993 RMK AO2 T00710047
PAUT 220435Z AUTO 32009KT 10SM OVC028 07/05 A2992 RMK AO2 T00710047
PAUT 220415Z AUTO 32010KT 10SM OVC026 07/05 A2992 RMK AO2 T00700050
PAUT 220355Z AUTO 33011G17KT 10SM OVC028 07/05 A2992 RMK AO2 T00700051
PAUT 220335Z AUTO 32013G16KT 10SM OVC028 07/05 A2992 RMK AO2 T00720050
PAUT 220315Z AUTO 32012KT 10SM OVC028 07/06 A2991 RMK AO2 T00730055
PAUT 220255Z AUTO 32012G19KT 10SM OVC028 08/05 A2991 RMK AO2 T00750053
PAUT 220235Z AUTO 31016G20KT 10SM OVC030 08/06 A2990 RMK AO2 T00750055
PAUT 220215Z AUTO 31015KT 10SM OVC030 08/06 A2990 RMK AO2 T00760055
PAUT 220155Z AUTO 31016KT 10SM OVC030 08/06 A2990 RMK AO2 T00770055
PAUT 220135Z AUTO 31014G22KT 10SM OVC030 08/06 A2990 RMK AO2 T00780055
PAUT 220115Z AUTO 31018G23KT 10SM OVC028 08/06 A2990 RMK AO2 T00770055
PAUT 220055Z AUTO 31013KT 10SM OVC030 08/06 A2990 RMK AO2 T00770058
PAUT 220035Z AUTO 31016G19KT 10SM OVC032 08/06 A2989 RMK AO2 T00790055
PAUT 220015Z AUTO 31014G19KT 10SM BKN032 OVC038 08/05 A2989 RMK AO2 T00800050
PAUT 212355Z AUTO 31014G20KT 10SM SCT032 OVC037 08/05 A2989 RMK AO2 T00800053 10090 20065